Time;durP1;ratioP1;P1;durP2;ratioP2;P2;SDS_P1;SDS_P2;PMS_P1;PMS_P2;Temp;Humidity;BMP_temperature;BMP_pressure;BME280_temperature;BME280_humidity;BME280_pressure;Samples;Min_cycle;Max_cycle;Signal;HPM_P1;HPM_P2
2021/12/11 00:02:00;;;;;;;15.45;12.25;;;;;;;;;;5111731;28;20047;-61
2021/12/11 00:04:31;;;;;;;16.60;12.38;;;;;;;;;;5112985;28;20050;-61
2021/12/11 00:06:58;;;;;;;16.63;12.93;;;;;;;;;;5112741;28;20537;-62
2021/12/11 00:09:26;;;;;;;15.65;12.73;;;;;;;;;;5112077;28;20483;-62
2021/12/11 00:11:54;;;;;;;15.88;12.35;;;;;;;;;;5112472;28;20044;-62
2021/12/11 00:14:21;;;;;;;15.95;12.70;;;;;;;;;;5112632;28;20043;-61
2021/12/11 00:16:50;;;;;;;17.77;12.70;;;;;;;;;;5111498;28;20048;-62
2021/12/11 00:19:21;;;;;;;16.02;12.05;;;;;;;;;;5112713;28;20048;-62
2021/12/11 00:21:48;;;;;;;14.93;12.02;;;;;;;;;;5112386;28;20048;-62
2021/12/11 00:24:16;;;;;;;16.88;12.02;;;;;;;;;;5111762;28;20048;-61
2021/12/11 00:26:43;;;;;;;16.08;12.45;;;;;;;;;;5112107;28;20044;-62
2021/12/11 00:29:11;;;;;;;15.15;12.13;;;;;;;;;;5112250;28;20143;-62
2021/12/11 00:31:43;;;;;;;17.35;12.45;;;;;;;;;;5111604;28;20444;-62
2021/12/11 00:34:11;;;;;;;16.10;11.85;;;;;;;;;;5112233;28;20052;-62
2021/12/11 00:36:38;;;;;;;19.33;12.35;;;;;;;;;;5112396;28;20452;-62
2021/12/11 00:39:05;;;;;;;14.90;11.88;;;;;;;;;;5110204;28;20044;-61
2021/12/11 00:41:33;;;;;;;15.00;11.98;;;;;;;;;;5112096;28;20493;-62
2021/12/11 00:44:01;;;;;;;15.90;12.35;;;;;;;;;;5111108;28;20043;-62
2021/12/11 00:46:28;;;;;;;16.67;12.85;;;;;;;;;;5112200;27;20048;-62
2021/12/11 00:48:54;;;;;;;15.13;12.05;;;;;;;;;;5111890;28;20128;-62
2021/12/11 00:51:23;;;;;;;16.10;12.25;;;;;;;;;;5111302;28;20104;-62
2021/12/11 00:53:51;;;;;;;13.13;11.18;;;;;;;;;;5111859;28;20048;-61
2021/12/11 00:56:18;;;;;;;15.10;12.32;;;;;;;;;;5111797;28;20043;-62
2021/12/11 00:58:45;;;;;;;13.90;10.82;;;;;;;;;;5110697;28;20062;-62
2021/12/11 01:01:13;;;;;;;16.00;11.48;;;;;;;;;;5111940;28;20102;-61
2021/12/11 01:03:42;;;;;;;13.65;11.20;;;;;;;;;;5111903;28;20052;-62
2021/12/11 01:06:10;;;;;;;13.82;10.90;;;;;;;;;;5111228;28;20043;-61
2021/12/11 01:08:40;;;;;;;18.17;11.85;;;;;;;;;;5111719;28;20051;-62
2021/12/11 01:11:08;;;;;;;14.55;11.45;;;;;;;;;;5111677;28;20074;-62
2021/12/11 01:13:36;;;;;;;14.77;11.27;;;;;;;;;;5110909;28;20509;-62
2021/12/11 01:16:10;;;;;;;15.20;11.50;;;;;;;;;;5111389;28;20096;-61
2021/12/11 01:18:39;;;;;;;15.55;10.98;;;;;;;;;;5111611;28;20410;-62
2021/12/11 01:21:24;;;;;;;13.77;11.23;;;;;;;;;;5110535;28;20061;-62
2021/12/11 01:24:12;;;;;;;14.90;11.55;;;;;;;;;;5111497;28;20054;-61
2021/12/11 01:26:41;;;;;;;11.70;10.48;;;;;;;;;;5111036;28;20043;-62
2021/12/11 01:29:08;;;;;;;14.40;11.43;;;;;;;;;;5111447;28;20486;-62
2021/12/11 01:31:34;;;;;;;13.25;10.98;;;;;;;;;;5111403;28;20044;-61
2021/12/11 01:34:01;;;;;;;14.07;11.05;;;;;;;;;;5110403;28;20543;-62
2021/12/11 01:36:28;;;;;;;13.32;10.77;;;;;;;;;;5111560;28;20109;-61
2021/12/11 01:38:56;;;;;;;14.57;11.20;;;;;;;;;;5111238;28;20051;-61
2021/12/11 01:41:23;;;;;;;14.60;11.45;;;;;;;;;;5110772;28;20093;-62
2021/12/11 01:43:50;;;;;;;14.38;11.45;;;;;;;;;;5111167;28;20444;-61
2021/12/11 01:46:20;;;;;;;14.45;11.18;;;;;;;;;;5111314;28;20546;-62
2021/12/11 01:48:47;;;;;;;12.57;11.15;;;;;;;;;;5110516;28;20104;-62
2021/12/11 01:51:16;;;;;;;14.57;10.68;;;;;;;;;;5115252;28;20093;-61
2021/12/11 01:53:44;;;;;;;14.88;10.35;;;;;;;;;;5115586;28;20044;-62
2021/12/11 01:56:15;;;;;;;13.15;11.07;;;;;;;;;;5114659;28;20047;-61
2021/12/11 01:58:44;;;;;;;14.85;11.20;;;;;;;;;;5115029;28;20059;-61
2021/12/11 02:01:12;;;;;;;14.40;10.68;;;;;;;;;;5115153;28;20044;-61
2021/12/11 02:03:38;;;;;;;16.98;10.73;;;;;;;;;;5115497;28;20070;-62
2021/12/11 02:06:05;;;;;;;14.73;10.65;;;;;;;;;;5114873;28;20048;-61
2021/12/11 02:08:33;;;;;;;12.10;10.48;;;;;;;;;;5114424;28;20443;-61
2021/12/11 02:11:03;;;;;;;12.65;10.55;;;;;;;;;;5114794;28;20089;-61
2021/12/11 02:13:39;;;;;;;12.98;10.65;;;;;;;;;;5114986;28;20187;-61
2021/12/11 02:16:06;;;;;;;14.70;11.02;;;;;;;;;;5114111;28;20058;-62
2021/12/11 02:18:35;;;;;;;14.23;10.73;;;;;;;;;;5114953;28;20104;-61
2021/12/11 02:21:06;;;;;;;12.68;10.27;;;;;;;;;;5114751;28;20079;-62
2021/12/11 02:23:34;;;;;;;13.68;10.48;;;;;;;;;;5114083;28;20081;-62
2021/12/11 02:26:02;;;;;;;13.55;10.68;;;;;;;;;;5114584;28;20490;-62
2021/12/11 02:28:31;;;;;;;15.23;10.63;;;;;;;;;;5114724;28;20040;-61
2021/12/11 02:31:04;;;;;;;12.80;10.40;;;;;;;;;;5113615;28;20559;-61
2021/12/11 02:33:34;;;;;;;14.65;10.57;;;;;;;;;;5114675;28;20177;-62
2021/12/11 02:36:09;;;;;;;15.77;11.00;;;;;;;;;;5114435;27;20491;-61
2021/12/11 02:38:38;;;;;;;13.13;10.27;;;;;;;;;;5113560;28;20043;-61
2021/12/11 02:41:06;;;;;;;15.27;11.32;;;;;;;;;;5114485;28;20051;-62
2021/12/11 02:43:37;;;;;;;14.95;9.82;;;;;;;;;;5113872;28;20040;-61
2021/12/11 02:46:06;;;;;;;14.20;10.93;;;;;;;;;;5114214;28;20047;-62
2021/12/11 02:48:35;;;;;;;17.13;11.02;;;;;;;;;;5114466;28;20094;-61
2021/12/11 02:51:06;;;;;;;15.32;11.52;;;;;;;;;;5113240;28;20044;-62
2021/12/11 02:53:33;;;;;;;15.77;11.30;;;;;;;;;;5114481;28;20048;-61
2021/12/11 02:56:05;;;;;;;15.35;10.60;;;;;;;;;;5114169;28;20104;-61
2021/12/11 02:58:34;;;;;;;18.05;11.02;;;;;;;;;;5113217;28;20095;-62
2021/12/11 03:01:03;;;;;;;17.85;11.25;;;;;;;;;;5112838;28;20490;-62
2021/12/11 03:03:33;;;;;;;14.02;10.55;;;;;;;;;;5113887;28;20391;-61
2021/12/11 03:06:02;;;;;;;14.38;10.88;;;;;;;;;;5113396;28;20050;-62
2021/12/11 03:08:28;;;;;;;18.38;11.32;;;;;;;;;;5114113;28;20524;-62
2021/12/11 03:10:56;;;;;;;15.05;10.57;;;;;;;;;;5113768;28;20056;-62
2021/12/11 03:13:26;;;;;;;16.20;11.73;;;;;;;;;;5113072;28;20539;-62
2021/12/11 03:15:53;;;;;;;15.73;10.95;;;;;;;;;;5113462;28;20055;-61
2021/12/11 03:18:19;;;;;;;16.25;11.00;;;;;;;;;;5113838;28;20047;-61
2021/12/11 03:20:46;;;;;;;17.08;11.88;;;;;;;;;;5112966;28;20096;-61
2021/12/11 03:23:13;;;;;;;18.17;12.18;;;;;;;;;;5113863;27;20039;-62
2021/12/11 03:25:39;;;;;;;18.27;11.02;;;;;;;;;;5113003;28;20052;-62
2021/12/11 03:28:07;;;;;;;18.15;11.68;;;;;;;;;;5113277;28;20047;-62
2021/12/11 03:30:37;;;;;;;16.33;11.63;;;;;;;;;;5113383;28;20043;-62
2021/12/11 03:33:05;;;;;;;16.98;11.43;;;;;;;;;;5112668;28;20048;-61
2021/12/11 03:35:32;;;;;;;16.77;11.75;;;;;;;;;;5113630;28;20048;-62
2021/12/11 03:38:01;;;;;;;17.63;11.48;;;;;;;;;;5113124;27;20044;-62
2021/12/11 03:40:27;;;;;;;18.63;11.88;;;;;;;;;;5112665;28;20075;-62
2021/12/11 03:42:55;;;;;;;16.05;11.98;;;;;;;;;;5113029;28;20047;-62
2021/12/11 03:45:22;;;;;;;16.63;12.43;;;;;;;;;;5113726;28;20027;-62
2021/12/11 03:47:52;;;;;;;17.08;11.95;;;;;;;;;;5112426;28;20093;-61
2021/12/11 03:50:20;;;;;;;17.00;11.98;;;;;;;;;;5113223;28;20093;-62
2021/12/11 03:52:47;;;;;;;16.63;12.27;;;;;;;;;;5112915;28;20093;-62
2021/12/11 03:55:15;;;;;;;18.48;12.20;;;;;;;;;;5112318;28;20039;-62
2021/12/11 03:57:44;;;;;;;19.20;12.07;;;;;;;;;;5112932;28;20040;-62
2021/12/11 04:00:13;;;;;;;18.65;12.85;;;;;;;;;;5092315;28;20502;-62
2021/12/11 04:02:40;;;;;;;19.23;12.73;;;;;;;;;;5092050;28;20097;-62
2021/12/11 04:05:08;;;;;;;18.25;12.15;;;;;;;;;;5092207;28;20044;-61
2021/12/11 04:07:36;;;;;;;17.60;12.27;;;;;;;;;;5092407;28;20044;-62
2021/12/11 04:10:05;;;;;;;17.75;12.55;;;;;;;;;;5091353;28;20055;-62
2021/12/11 04:12:31;;;;;;;17.55;12.60;;;;;;;;;;5092326;28;20052;-62
2021/12/11 04:14:57;;;;;;;21.55;13.05;;;;;;;;;;5091462;28;20097;-61
2021/12/11 04:17:25;;;;;;;18.75;12.50;;;;;;;;;;5092361;28;20048;-62
2021/12/11 04:19:54;;;;;;;20.30;12.88;;;;;;;;;;5091907;28;20051;-62
2021/12/11 04:22:22;;;;;;;18.40;12.55;;;;;;;;;;5091396;28;20539;-62
2021/12/11 04:24:48;;;;;;;19.00;12.55;;;;;;;;;;5092039;28;20044;-62
2021/12/11 04:27:16;;;;;;;18.52;12.50;;;;;;;;;;5092100;28;20097;-62
2021/12/11 04:29:43;;;;;;;18.95;13.55;;;;;;;;;;5091036;28;20048;-61
2021/12/11 04:32:09;;;;;;;19.15;12.85;;;;;;;;;;5091897;28;20486;-62
2021/12/11 04:34:36;;;;;;;17.90;12.23;;;;;;;;;;5091939;28;20044;-62
2021/12/11 04:37:10;;;;;;;15.90;12.52;;;;;;;;;;5090747;28;20048;-62
2021/12/11 04:39:39;;;;;;;18.05;12.30;;;;;;;;;;5091960;28;20044;-61
2021/12/11 04:42:14;;;;;;;19.35;13.10;;;;;;;;;;5091398;28;20048;-62
2021/12/11 04:44:44;;;;;;;19.13;13.32;;;;;;;;;;5091299;28;20076;-61
2021/12/11 04:47:15;;;;;;;18.63;12.77;;;;;;;;;;5091745;28;20044;-62
2021/12/11 04:49:48;;;;;;;18.88;13.18;;;;;;;;;;5091661;28;20469;-61
2021/12/11 04:52:18;;;;;;;18.73;13.27;;;;;;;;;;5091012;28;20055;-62
2021/12/11 04:54:58;;;;;;;21.33;13.75;;;;;;;;;;5091380;28;20138;-62
2021/12/11 05:00:20;;;;;;;18.13;13.30;;;;;;;;;;5111461;28;20054;-62
2021/12/11 05:03:08;;;;;;;20.52;14.32;;;;;;;;;;5111757;28;20044;-62
2021/12/11 05:05:52;;;;;;;19.15;13.63;;;;;;;;;;5111097;28;20050;-62
2021/12/11 05:08:58;;;;;;;19.80;14.07;;;;;;;;;;5111953;28;20043;-62
2021/12/11 05:11:21;;;;;;;22.63;14.38;;;;;;;;;;5110881;28;20048;-62
2021/12/11 05:13:47;;;;;;;18.83;13.35;;;;;;;;;;5111581;28;20050;-62
2021/12/11 05:16:14;;;;;;;20.38;13.85;;;;;;;;;;5111716;28;20044;-62
2021/12/11 05:18:42;;;;;;;23.95;14.63;;;;;;;;;;5110830;28;20039;-62
2021/12/11 05:21:13;;;;;;;17.35;13.23;;;;;;;;;;5111901;28;20051;-62
2021/12/11 05:23:39;;;;;;;19.30;13.95;;;;;;;;;;5111680;28;20051;-62
2021/12/11 05:26:05;;;;;;;19.25;13.55;;;;;;;;;;5110388;28;20093;-62
2021/12/11 05:28:34;;;;;;;19.40;13.63;;;;;;;;;;5111581;28;20104;-62
2021/12/11 05:31:02;;;;;;;18.70;13.90;;;;;;;;;;5111266;28;20092;-61
2021/12/11 05:33:28;;;;;;;19.35;13.88;;;;;;;;;;5110596;28;20478;-61
2021/12/11 05:35:55;;;;;;;19.63;14.00;;;;;;;;;;5111407;28;20051;-61
2021/12/11 05:38:22;;;;;;;17.17;13.45;;;;;;;;;;5111595;28;20052;-62
2021/12/11 05:40:51;;;;;;;18.55;14.13;;;;;;;;;;5110682;28;20055;-62
2021/12/11 05:43:17;;;;;;;18.48;13.63;;;;;;;;;;5111280;28;20379;-61
2021/12/11 05:45:45;;;;;;;18.05;13.27;;;;;;;;;;5111088;28;20052;-62
2021/12/11 05:48:12;;;;;;;18.90;13.98;;;;;;;;;;5110805;28;20073;-61
2021/12/11 05:50:39;;;;;;;18.48;13.52;;;;;;;;;;5111302;28;20547;-61
2021/12/11 05:53:06;;;;;;;19.05;14.07;;;;;;;;;;5111083;28;20040;-61
2021/12/11 05:55:33;;;;;;;18.00;13.32;;;;;;;;;;5110611;28;20073;-61
2021/12/11 05:58:09;;;;;;;17.83;13.13;;;;;;;;;;5110941;28;20050;-62
2021/12/11 06:00:35;;;;;;;;;;;;;;;;;;5110711;28;20154;-62
2021/12/11 06:03:04;;;;;;;17.05;13.10;;;;;;;;;;5111179;28;19932;-61
2021/12/11 06:05:30;;;;;;;20.10;13.70;;;;;;;;;;5111363;28;20511;-61
2021/12/11 06:07:57;;;;;;;16.38;12.75;;;;;;;;;;5111124;28;20379;-62
2021/12/11 06:10:27;;;;;;;16.13;13.25;;;;;;;;;;5111270;28;20059;-62
2021/12/11 06:12:55;;;;;;;15.57;12.13;;;;;;;;;;5110820;28;20044;-61
2021/12/11 06:15:21;;;;;;;17.25;13.18;;;;;;;;;;5110631;28;20096;-62
2021/12/11 06:17:47;;;;;;;16.73;12.48;;;;;;;;;;5111014;28;20043;-62
2021/12/11 06:20:17;;;;;;;16.85;12.70;;;;;;;;;;5111040;28;20047;-62
2021/12/11 06:22:43;;;;;;;17.05;12.95;;;;;;;;;;5110145;28;20043;-61
2021/12/11 06:25:11;;;;;;;18.95;13.40;;;;;;;;;;5111090;28;20047;-61
2021/12/11 06:27:37;;;;;;;17.52;12.48;;;;;;;;;;5111025;28;20113;-61
2021/12/11 06:30:05;;;;;;;15.88;12.60;;;;;;;;;;5110028;28;20075;-61
2021/12/11 06:32:31;;;;;;;16.58;12.25;;;;;;;;;;5111051;28;20044;-61
2021/12/11 06:34:58;;;;;;;17.95;13.02;;;;;;;;;;5110556;28;20408;-61
2021/12/11 06:37:26;;;;;;;17.92;12.95;;;;;;;;;;5112265;28;20550;-61
2021/12/11 06:39:53;;;;;;;16.50;12.20;;;;;;;;;;5113985;28;20071;-61
2021/12/11 06:42:20;;;;;;;15.80;12.35;;;;;;;;;;5114404;28;20481;-62
2021/12/11 06:44:46;;;;;;;17.73;12.90;;;;;;;;;;5115007;28;20048;-60
2021/12/11 06:47:14;;;;;;;14.63;11.57;;;;;;;;;;5114399;27;20051;-60
2021/12/11 06:49:41;;;;;;;15.23;11.80;;;;;;;;;;5110402;28;20395;-59
2021/12/11 06:52:09;;;;;;;15.82;11.57;;;;;;;;;;5113658;28;20047;-61
2021/12/11 06:54:37;;;;;;;15.73;12.52;;;;;;;;;;5113944;28;20073;-60
2021/12/11 06:57:03;;;;;;;15.38;12.18;;;;;;;;;;5113036;27;20120;-60
2021/12/11 06:59:30;;;;;;;15.25;12.02;;;;;;;;;;5113854;28;20108;-61
2021/12/11 07:01:56;;;;;;;15.57;11.63;;;;;;;;;;5113631;28;20056;-60
2021/12/11 07:04:23;;;;;;;15.00;12.10;;;;;;;;;;5112674;27;20044;-61
2021/12/11 07:06:50;;;;;;;14.55;11.75;;;;;;;;;;5113572;28;20051;-61
2021/12/11 07:09:17;;;;;;;15.55;12.30;;;;;;;;;;5113621;28;20044;-62
2021/12/11 07:11:45;;;;;;;14.15;11.63;;;;;;;;;;5113061;28;20398;-62
2021/12/11 07:14:12;;;;;;;14.95;11.75;;;;;;;;;;5113744;28;20044;-60
2021/12/11 07:16:39;;;;;;;14.55;11.60;;;;;;;;;;5113584;28;20047;-60
2021/12/11 07:19:06;;;;;;;14.32;11.55;;;;;;;;;;5111307;28;20123;-60
2021/12/11 07:21:33;;;;;;;14.40;11.73;;;;;;;;;;5113242;28;20051;-60
2021/12/11 07:24:00;;;;;;;16.73;11.43;;;;;;;;;;5113409;28;20051;-61
2021/12/11 07:26:31;;;;;;;15.88;11.80;;;;;;;;;;5112839;28;20052;-61
2021/12/11 07:29:01;;;;;;;15.55;11.73;;;;;;;;;;5113230;28;20039;-61
2021/12/11 07:31:27;;;;;;;15.38;11.60;;;;;;;;;;5113246;28;20040;-61
2021/12/11 07:33:54;;;;;;;15.63;11.85;;;;;;;;;;5112228;27;20096;-61
2021/12/11 07:36:21;;;;;;;15.40;12.10;;;;;;;;;;5112910;28;20128;-61
2021/12/11 07:38:47;;;;;;;12.63;10.57;;;;;;;;;;5112487;28;20043;-61
2021/12/11 07:41:14;;;;;;;13.18;10.98;;;;;;;;;;5113220;27;20430;-61
2021/12/11 07:43:41;;;;;;;14.60;11.55;;;;;;;;;;5113790;28;20104;-61
2021/12/11 07:46:13;;;;;;;15.00;11.95;;;;;;;;;;5112952;28;20913;-61
2021/12/11 07:48:40;;;;;;;14.40;10.70;;;;;;;;;;5112843;28;20135;-61
2021/12/11 07:51:07;;;;;;;17.95;11.90;;;;;;;;;;5112880;28;20040;-61
2021/12/11 07:53:33;;;;;;;14.25;11.75;;;;;;;;;;5112429;28;20047;-60
2021/12/11 07:56:00;;;;;;;14.52;11.93;;;;;;;;;;5112693;28;20043;-60
2021/12/11 07:58:29;;;;;;;14.18;11.90;;;;;;;;;;5112894;28;20093;-60
2021/12/11 08:00:55;;;;;;;14.88;11.77;;;;;;;;;;5112139;28;20080;-61
2021/12/11 08:03:22;;;;;;;13.48;10.80;;;;;;;;;;5112754;28;20044;-60
2021/12/11 08:05:50;;;;;;;13.15;10.98;;;;;;;;;;5112268;28;20101;-60
2021/12/11 08:08:17;;;;;;;13.98;11.43;;;;;;;;;;5112085;28;20096;-60
2021/12/11 08:10:45;;;;;;;14.02;10.82;;;;;;;;;;5112584;28;20399;-60
2021/12/11 08:13:11;;;;;;;13.98;11.00;;;;;;;;;;5112806;28;20176;-60
2021/12/11 08:15:38;;;;;;;13.98;11.02;;;;;;;;;;5111735;28;20040;-60
2021/12/11 08:18:05;;;;;;;14.50;11.00;;;;;;;;;;5112226;28;20048;-60
2021/12/11 08:20:34;;;;;;;14.02;11.10;;;;;;;;;;5112196;28;20043;-60
2021/12/11 08:23:00;;;;;;;13.65;10.77;;;;;;;;;;5111485;28;20040;-60
2021/12/11 08:25:27;;;;;;;14.63;11.18;;;;;;;;;;5112558;28;20097;-63
2021/12/11 08:27:54;;;;;;;15.02;11.05;;;;;;;;;;5112148;28;20133;-62
2021/12/11 08:30:20;;;;;;;13.27;10.60;;;;;;;;;;5111466;28;20044;-61
2021/12/11 08:32:49;;;;;;;14.55;10.95;;;;;;;;;;5112267;28;20047;-61
2021/12/11 08:35:15;;;;;;;13.75;11.18;;;;;;;;;;5110820;28;20047;-60
2021/12/11 08:37:44;;;;;;;12.77;10.77;;;;;;;;;;5112571;28;20088;-60
2021/12/11 08:40:15;;;;;;;14.65;11.05;;;;;;;;;;5112441;28;20052;-60
2021/12/11 08:42:42;;;;;;;13.63;10.70;;;;;;;;;;5111543;28;20100;-60
2021/12/11 08:45:11;;;;;;;13.52;10.93;;;;;;;;;;5112386;27;20051;-60
2021/12/11 08:47:40;;;;;;;14.52;10.57;;;;;;;;;;5112525;28;20039;-61
2021/12/11 08:50:07;;;;;;;13.45;10.90;;;;;;;;;;5111299;28;20047;-60
2021/12/11 08:52:36;;;;;;;14.32;10.63;;;;;;;;;;5112247;28;20107;-61
2021/12/11 08:55:05;;;;;;;13.48;10.00;;;;;;;;;;5112011;28;20056;-61
2021/12/11 08:57:33;;;;;;;12.52;10.18;;;;;;;;;;5111297;28;20056;-62
2021/12/11 09:00:00;;;;;;;13.90;10.80;;;;;;;;;;5110808;28;20043;-63
2021/12/11 09:02:28;;;;;;;13.27;11.10;;;;;;;;;;5112258;28;20077;-63
2021/12/11 09:04:56;;;;;;;14.68;11.38;;;;;;;;;;5110833;28;20048;-63
2021/12/11 09:07:25;;;;;;;15.60;11.70;;;;;;;;;;5111949;28;20039;-62
2021/12/11 09:09:53;;;;;;;24.42;12.10;;;;;;;;;;5111808;28;20101;-62
2021/12/11 09:12:24;;;;;;;22.58;11.60;;;;;;;;;;5111137;28;20051;-61
2021/12/11 09:14:51;;;;;;;17.60;11.25;;;;;;;;;;5111771;28;20406;-62
2021/12/11 09:17:20;;;;;;;21.73;11.15;;;;;;;;;;5111271;28;20048;-62
2021/12/11 09:19:48;;;;;;;22.88;10.85;;;;;;;;;;5111377;28;20044;-62
2021/12/11 09:22:17;;;;;;;27.83;13.13;;;;;;;;;;5111718;28;20113;-62
2021/12/11 09:24:46;;;;;;;19.13;11.63;;;;;;;;;;5110385;28;20077;-62
2021/12/11 09:27:14;;;;;;;24.00;10.88;;;;;;;;;;5111529;28;20040;-62
2021/12/11 09:29:44;;;;;;;19.00;10.98;;;;;;;;;;5111623;28;20043;-62
2021/12/11 09:32:14;;;;;;;26.17;11.65;;;;;;;;;;5090625;28;20044;-62
2021/12/11 09:34:42;;;;;;;20.73;11.25;;;;;;;;;;5101139;28;20048;-62
2021/12/11 09:37:08;;;;;;;22.70;12.48;;;;;;;;;;5111590;28;20074;-62
2021/12/11 09:39:37;;;;;;;25.88;13.30;;;;;;;;;;5110981;28;20088;-62
2021/12/11 09:42:03;;;;;;;26.58;13.68;;;;;;;;;;5110868;28;20044;-61
2021/12/11 09:44:33;;;;;;;24.55;13.00;;;;;;;;;;5091942;28;20281;-62
2021/12/11 09:47:02;;;;;;;24.42;13.43;;;;;;;;;;5090224;28;20052;-62
2021/12/11 09:49:29;;;;;;;20.25;13.27;;;;;;;;;;5091043;28;20040;-61
2021/12/11 09:52:02;;;;;;;22.17;14.65;;;;;;;;;;5090885;28;20051;-62
2021/12/11 09:54:29;;;;;;;23.40;14.75;;;;;;;;;;5090751;28;20066;-65
2021/12/11 09:56:57;;;;;;;24.70;14.90;;;;;;;;;;5090956;28;20048;-65
2021/12/11 09:59:26;;;;;;;24.63;15.02;;;;;;;;;;5104578;28;20138;-63
2021/12/11 10:01:55;;;;;;;25.98;15.90;;;;;;;;;;5110876;28;20051;-64
2021/12/11 10:04:28;;;;;;;23.92;16.23;;;;;;;;;;5111100;28;20292;-64
2021/12/11 10:07:23;;;;;;;23.75;15.32;;;;;;;;;;5110450;28;20043;-64
2021/12/11 10:09:50;;;;;;;26.27;16.80;;;;;;;;;;5110847;28;20040;-64
2021/12/11 10:12:19;;;;;;;22.45;14.95;;;;;;;;;;5115346;28;20044;-61
2021/12/11 10:14:48;;;;;;;21.95;15.73;;;;;;;;;;5114160;28;20048;-68
2021/12/11 10:17:16;;;;;;;24.67;16.35;;;;;;;;;;5115419;28;20192;-64
2021/12/11 10:19:44;;;;;;;23.00;16.67;;;;;;;;;;5115020;28;20039;-63
2021/12/11 10:22:14;;;;;;;28.02;16.92;;;;;;;;;;5114667;27;20044;-63
2021/12/11 10:24:41;;;;;;;26.20;16.38;;;;;;;;;;5115015;28;20043;-63
2021/12/11 10:27:09;;;;;;;23.73;16.77;;;;;;;;;;5114835;28;20553;-63
2021/12/11 10:29:35;;;;;;;23.30;16.42;;;;;;;;;;5112783;28;20490;-63
2021/12/11 10:32:05;;;;;;;24.33;16.52;;;;;;;;;;5114522;28;20112;-63
2021/12/11 10:34:34;;;;;;;22.38;16.30;;;;;;;;;;5115062;27;20048;-63
2021/12/11 10:37:03;;;;;;;24.67;17.20;;;;;;;;;;5114524;28;20092;-63
2021/12/11 10:39:30;;;;;;;23.48;17.05;;;;;;;;;;5114827;28;20092;-63
2021/12/11 10:41:56;;;;;;;23.92;17.33;;;;;;;;;;5113513;28;20044;-63
2021/12/11 10:44:24;;;;;;;25.27;18.17;;;;;;;;;;5114716;28;20051;-63
2021/12/11 10:46:53;;;;;;;22.55;17.15;;;;;;;;;;5114617;28;20043;-63
2021/12/11 10:49:19;;;;;;;26.52;17.77;;;;;;;;;;5114071;28;20108;-63
2021/12/11 10:51:49;;;;;;;25.27;17.77;;;;;;;;;;5114178;28;20108;-63
2021/12/11 10:54:17;;;;;;;25.40;18.13;;;;;;;;;;5114498;28;20117;-63
2021/12/11 10:56:44;;;;;;;23.50;17.48;;;;;;;;;;5113661;27;20051;-63
2021/12/11 10:59:15;;;;;;;25.60;18.50;;;;;;;;;;5114359;28;20113;-63
2021/12/11 11:01:42;;;;;;;26.40;18.08;;;;;;;;;;5114595;28;20097;-63
2021/12/11 11:04:11;;;;;;;27.85;18.98;;;;;;;;;;5113530;28;20055;-63
2021/12/11 11:06:37;;;;;;;27.15;18.73;;;;;;;;;;5114218;28;20100;-63
2021/12/11 11:09:05;;;;;;;27.63;18.67;;;;;;;;;;5113754;28;20043;-63
2021/12/11 11:11:33;;;;;;;26.35;18.58;;;;;;;;;;5113660;28;20051;-63
2021/12/11 11:14:01;;;;;;;27.52;18.90;;;;;;;;;;5113796;28;20066;-63
2021/12/11 11:16:28;;;;;;;26.10;18.67;;;;;;;;;;5114146;28;20047;-63
2021/12/11 11:18:54;;;;;;;26.90;18.98;;;;;;;;;;5112985;28;20093;-63
2021/12/11 11:21:22;;;;;;;23.83;18.33;;;;;;;;;;5113654;28;20051;-63
2021/12/11 11:23:49;;;;;;;25.10;19.25;;;;;;;;;;5113243;28;20070;-63
2021/12/11 11:26:18;;;;;;;24.48;18.10;;;;;;;;;;5113751;28;20055;-63
2021/12/11 11:28:44;;;;;;;25.55;19.20;;;;;;;;;;5113547;28;20547;-63
2021/12/11 11:31:14;;;;;;;24.33;18.02;;;;;;;;;;5112986;28;20081;-63
2021/12/11 11:33:41;;;;;;;25.15;17.95;;;;;;;;;;5113777;28;20116;-63
2021/12/11 11:36:09;;;;;;;24.55;18.23;;;;;;;;;;5113606;28;20130;-63
2021/12/11 11:38:37;;;;;;;24.13;17.85;;;;;;;;;;5113045;27;20294;-63
2021/12/11 11:41:05;;;;;;;25.10;18.98;;;;;;;;;;5113187;28;20482;-63
2021/12/11 11:43:32;;;;;;;24.83;17.73;;;;;;;;;;5113600;28;20047;-63
2021/12/11 11:45:59;;;;;;;24.63;18.42;;;;;;;;;;5112387;27;20105;-63
2021/12/11 11:48:26;;;;;;;25.98;18.77;;;;;;;;;;5113429;28;20044;-63
2021/12/11 11:50:53;;;;;;;24.27;19.17;;;;;;;;;;5112954;28;20557;-63
2021/12/11 11:53:24;;;;;;;24.45;18.48;;;;;;;;;;5112732;28;20043;-63
2021/12/11 11:55:56;;;;;;;24.75;18.70;;;;;;;;;;5113014;28;20069;-63
2021/12/11 11:58:22;;;;;;;27.10;18.80;;;;;;;;;;5113000;28;20464;-63
2021/12/11 12:00:52;;;;;;;26.83;18.90;;;;;;;;;;5111954;28;20069;-63
2021/12/11 12:03:21;;;;;;;23.40;18.23;;;;;;;;;;5113327;28;20047;-63
2021/12/11 12:05:49;;;;;;;25.38;18.70;;;;;;;;;;5112821;28;20048;-63
2021/12/11 12:08:16;;;;;;;25.52;19.65;;;;;;;;;;5113318;28;20047;-63
2021/12/11 12:10:44;;;;;;;24.55;18.30;;;;;;;;;;5112682;28;20096;-63
2021/12/11 12:13:11;;;;;;;23.67;17.98;;;;;;;;;;5112125;28;20093;-63
2021/12/11 12:15:39;;;;;;;23.83;18.20;;;;;;;;;;5112892;28;20040;-63
2021/12/11 12:18:07;;;;;;;25.05;18.05;;;;;;;;;;5112661;28;20445;-63
2021/12/11 12:20:34;;;;;;;23.20;17.85;;;;;;;;;;5111964;28;20077;-63
2021/12/11 12:23:01;;;;;;;24.85;18.52;;;;;;;;;;5112661;28;20399;-63
2021/12/11 12:25:28;;;;;;;24.90;18.27;;;;;;;;;;5112925;28;20089;-63
2021/12/11 12:27:54;;;;;;;22.67;17.50;;;;;;;;;;5111437;28;20051;-63
2021/12/11 12:30:22;;;;;;;23.45;17.75;;;;;;;;;;5112753;28;20056;-63
2021/12/11 12:32:51;;;;;;;25.33;18.40;;;;;;;;;;5112434;28;20089;-63
2021/12/11 12:35:19;;;;;;;21.70;17.17;;;;;;;;;;5111954;28;20071;-63
2021/12/11 12:37:46;;;;;;;21.15;17.08;;;;;;;;;;5112268;28;20052;-63
2021/12/11 12:40:14;;;;;;;22.13;16.95;;;;;;;;;;5112518;28;20048;-63
2021/12/11 12:42:50;;;;;;;21.25;17.20;;;;;;;;;;5111514;28;20090;-63
2021/12/11 12:45:17;;;;;;;;;;;;;;;;;;5113078;28;20053;-63
2021/12/11 12:47:45;;;;;;;22.75;17.48;;;;;;;;;;5112219;28;19965;-63
2021/12/11 12:50:14;;;;;;;21.17;16.05;;;;;;;;;;5111416;28;20472;-63
2021/12/11 12:52:43;;;;;;;21.92;17.30;;;;;;;;;;5112326;28;20485;-63
2021/12/11 12:55:12;;;;;;;20.88;16.23;;;;;;;;;;5112119;28;20051;-63
2021/12/11 12:57:40;;;;;;;19.40;15.50;;;;;;;;;;5111682;28;20051;-63
2021/12/11 13:00:09;;;;;;;22.30;17.13;;;;;;;;;;5112085;28;20097;-63
2021/12/11 13:02:38;;;;;;;20.20;16.02;;;;;;;;;;5112894;28;20043;-63
2021/12/11 13:05:08;;;;;;;21.05;16.63;;;;;;;;;;5111795;28;20040;-63
2021/12/11 13:07:34;;;;;;;19.33;15.30;;;;;;;;;;5111901;28;20043;-63
2021/12/11 13:10:07;;;;;;;21.40;15.93;;;;;;;;;;5110996;28;20613;-63
2021/12/11 13:12:35;;;;;;;19.92;16.10;;;;;;;;;;5111899;28;20479;-63
2021/12/11 13:15:05;;;;;;;20.27;15.98;;;;;;;;;;5111725;28;20043;-63
2021/12/11 13:17:34;;;;;;;18.25;15.40;;;;;;;;;;5111144;28;20113;-63
2021/12/11 13:20:03;;;;;;;18.40;15.43;;;;;;;;;;5111391;28;20500;-63
2021/12/11 13:22:31;;;;;;;19.52;14.93;;;;;;;;;;5112105;28;20131;-63
2021/12/11 13:24:59;;;;;;;19.83;15.25;;;;;;;;;;5110826;28;20108;-63
2021/12/11 13:27:29;;;;;;;20.52;15.85;;;;;;;;;;5111913;28;20044;-63
2021/12/11 13:29:57;;;;;;;18.85;15.05;;;;;;;;;;5111430;28;20089;-63
2021/12/11 13:32:25;;;;;;;17.58;14.48;;;;;;;;;;5110922;28;20047;-63
2021/12/11 13:34:52;;;;;;;18.38;14.65;;;;;;;;;;5111303;28;20482;-63
2021/12/11 13:37:20;;;;;;;19.25;15.15;;;;;;;;;;5111726;28;20470;-63
2021/12/11 13:39:47;;;;;;;18.38;14.82;;;;;;;;;;5110721;28;20472;-63
2021/12/11 13:42:19;;;;;;;18.15;14.43;;;;;;;;;;5111438;28;20532;-63
2021/12/11 13:44:48;;;;;;;18.00;14.70;;;;;;;;;;5110973;28;20092;-63
2021/12/11 13:47:16;;;;;;;17.15;13.90;;;;;;;;;;5115637;28;20113;-63
2021/12/11 13:49:44;;;;;;;17.05;14.18;;;;;;;;;;5115634;28;20039;-63
2021/12/11 13:52:10;;;;;;;16.50;14.15;;;;;;;;;;5115106;28;20044;-63
2021/12/11 13:54:38;;;;;;;18.42;14.82;;;;;;;;;;5115625;28;20474;-63
2021/12/11 13:57:07;;;;;;;19.10;15.18;;;;;;;;;;5115374;28;20044;-63
2021/12/11 13:59:34;;;;;;;17.48;14.15;;;;;;;;;;5114663;28;20047;-64
2021/12/11 14:02:01;;;;;;;16.48;13.75;;;;;;;;;;5115346;28;20043;-64
2021/12/11 14:04:29;;;;;;;17.60;14.27;;;;;;;;;;5115667;28;20050;-63
2021/12/11 14:07:09;;;;;;;17.10;14.43;;;;;;;;;;5114173;28;20047;-63
2021/12/11 14:09:36;;;;;;;16.88;13.98;;;;;;;;;;5115897;28;20051;-63
2021/12/11 14:12:03;;;;;;;15.85;13.70;;;;;;;;;;5114998;28;20067;-63
2021/12/11 14:14:29;;;;;;;17.52;14.05;;;;;;;;;;5114835;28;20100;-63
2021/12/11 14:16:55;;;;;;;17.38;14.02;;;;;;;;;;5115119;28;20085;-63
2021/12/11 14:19:23;;;;;;;16.67;13.77;;;;;;;;;;5115383;27;20124;-63
2021/12/11 14:21:49;;;;;;;16.10;13.02;;;;;;;;;;5114055;28;20113;-63
2021/12/11 14:24:16;;;;;;;15.52;12.75;;;;;;;;;;5115087;28;20088;-63
2021/12/11 14:26:43;;;;;;;16.08;13.27;;;;;;;;;;5114339;28;20043;-63
2021/12/11 14:29:09;;;;;;;16.13;12.77;;;;;;;;;;5114836;28;20503;-63